Terminal Aerodrome Forecast
Issued by NWS Green Bay, WI

Home | Current Version | Previous Version | Graphics & Text | Print | Product List | Glossary On
Versions: 1 2 3 4 5 6 7 8 9 10 11 12 13 14 15 16 17 18 19 20 21 22 23 24 25 26 27 28 29 30 31 32 33 34 35 36 37 38
000
FTUS43 KGRB 202334
TAFGRB
TAF
KGRB 202334Z 2100/2124 29010KT P6SM SCT030 BKN120
     FM210100 VRB03KT P6SM SCT250
      TEMPO 2108/2112 3SM BR SCT005
     FM211400 16005KT P6SM SKC
     FM211800 16009KT P6SM FEW040 SCT150 PROB30 2120/2124 3SM -TSRA
      BKN040CB=

USA.gov is the U.S. government's official web portal to all federal, state and local government web resources and services.